createdAt,value
2022-08-05T00:00:18.470Z,17.138889
2022-08-05T00:06:02.681Z,17.113426
2022-08-05T00:10:18.197Z,17.081019
2022-08-05T00:15:55.578Z,17.067130
2022-08-05T00:20:20.184Z,17.025463
2022-08-05T00:25:18.189Z,16.872685
2022-08-05T00:30:18.116Z,16.703704
2022-08-05T00:35:18.188Z,16.622685
2022-08-05T00:40:27.977Z,16.527778
2022-08-05T00:45:18.120Z,16.388889
2022-08-05T00:50:18.162Z,16.331019
2022-08-05T00:55:18.982Z,16.312500
2022-08-05T01:00:20.020Z,16.196759
2022-08-05T01:05:18.076Z,16.099537
2022-08-05T01:10:18.145Z,16.030093
2022-08-05T01:15:35.255Z,15.900463
2022-08-05T01:20:18.071Z,15.900463
2022-08-05T01:25:18.292Z,15.983796
2022-08-05T01:30:18.911Z,16.310185
2022-08-05T01:35:51.318Z,16.421296
2022-08-05T01:40:18.173Z,16.423611
2022-08-05T01:45:18.132Z,16.421296
2022-08-05T01:50:18.127Z,16.425926
2022-08-05T01:55:18.138Z,16.381944
2022-08-05T02:00:18.114Z,16.372685
2022-08-05T02:05:18.271Z,16.189815
2022-08-05T02:10:18.159Z,16.321759
2022-08-05T02:15:19.629Z,16.270833
2022-08-05T02:20:20.712Z,16.039352
2022-08-05T02:25:18.443Z,15.856481
2022-08-05T02:30:18.071Z,15.868056
2022-08-05T02:35:19.153Z,15.692130
2022-08-05T02:40:18.089Z,15.548611
2022-08-05T02:45:18.335Z,15.483796
2022-08-05T02:50:18.292Z,15.430556
2022-08-05T02:55:48.343Z,15.335648
2022-08-05T03:00:18.074Z,15.291667
2022-08-05T03:05:21.881Z,15.386574
2022-08-05T03:06:54.113Z,15.386574
2022-08-05T03:10:22.080Z,15.402778
2022-08-05T03:15:18.095Z,15.388889
2022-08-05T03:20:18.085Z,15.305556
2022-08-05T03:25:32.907Z,15.148148
2022-08-05T03:30:18.101Z,15.235556
2022-08-05T03:35:18.108Z,15.111111
2022-08-05T03:40:31.241Z,15.293981
2022-08-05T03:45:21.385Z,15.437500
2022-08-05T03:50:18.189Z,15.287037
2022-08-05T03:56:05.199Z,15.320000
2022-08-05T04:00:18.379Z,15.532407
2022-08-05T04:05:18.185Z,15.509259
2022-08-05T04:10:18.455Z,15.766667
2022-08-05T04:15:18.139Z,15.967593
2022-08-05T04:20:19.922Z,16.229167
2022-08-05T04:25:18.118Z,16.851852
2022-08-05T04:30:18.179Z,16.990741
2022-08-05T04:35:19.798Z,16.895833
2022-08-05T04:40:19.584Z,16.851852
2022-08-05T04:45:22.878Z,16.784722
2022-08-05T04:50:37.309Z,16.914352
2022-08-05T04:55:49.805Z,17.087963
2022-08-05T05:00:18.159Z,17.333333
2022-08-05T05:05:28.323Z,17.881944
2022-08-05T05:10:18.073Z,18.300926
2022-08-05T05:15:56.451Z,18.738426
2022-08-05T05:20:18.125Z,19.319444
2022-08-05T05:25:18.086Z,20.122685
2022-08-05T05:30:29.292Z,20.939815
2022-08-05T05:35:19.806Z,21.599537
2022-08-05T05:40:18.115Z,21.715278
2022-08-05T05:45:18.062Z,21.634259
2022-08-05T05:50:19.811Z,21.439815
2022-08-05T05:55:18.077Z,21.381944
2022-08-05T06:00:18.091Z,21.460648
2022-08-05T06:05:20.482Z,21.625000
2022-08-05T06:10:18.441Z,21.805556
2022-08-05T06:15:24.110Z,21.856481
2022-08-05T06:20:18.885Z,21.710648
2022-08-05T06:25:24.947Z,22.034722
2022-08-05T06:30:21.188Z,22.414352
2022-08-05T06:36:03.746Z,22.699074
2022-08-05T06:40:21.439Z,22.488426
2022-08-05T06:45:20.902Z,22.201389
2022-08-05T06:50:18.041Z,22.319444
2022-08-05T06:55:18.207Z,22.807870
2022-08-05T07:00:24.571Z,22.944444
2022-08-05T07:05:18.841Z,23.273148
2022-08-05T07:10:18.115Z,23.471111
2022-08-05T07:15:34.790Z,23.435185
2022-08-05T07:20:32.909Z,23.511574
2022-08-05T07:25:54.111Z,23.469907
2022-08-05T07:30:27.320Z,23.495370
2022-08-05T07:36:02.438Z,23.414352
2022-08-05T07:40:32.081Z,23.712963
2022-08-05T07:45:18.069Z,23.821759
2022-08-05T07:50:18.052Z,23.988426
2022-08-05T07:56:05.004Z,24.064815
2022-08-05T08:00:18.044Z,23.858796
2022-08-05T08:05:18.188Z,24.125000
2022-08-05T08:10:20.747Z,24.650463
2022-08-05T08:15:18.032Z,24.791667
2022-08-05T08:20:43.308Z,24.856481
2022-08-05T08:25:18.155Z,24.606481
2022-08-05T08:30:30.111Z,25.011574
2022-08-05T08:35:18.102Z,25.212963
2022-08-05T08:40:18.044Z,25.224537
2022-08-05T08:45:26.945Z,25.337963
2022-08-05T08:50:30.637Z,25.451111
2022-08-05T08:55:19.659Z,25.766204
2022-08-05T09:00:19.448Z,26.548611
2022-08-05T09:05:18.525Z,26.500000
2022-08-05T09:10:18.302Z,25.472222
2022-08-05T09:15:18.076Z,25.629630
2022-08-05T09:20:36.686Z,26.011574
2022-08-05T09:25:24.388Z,26.148148
2022-08-05T09:30:18.037Z,26.421296
2022-08-05T09:35:26.303Z,26.810185
2022-08-05T09:40:18.223Z,26.516204
2022-08-05T09:46:07.105Z,26.995370
2022-08-05T09:50:37.331Z,27.918981
2022-08-05T09:55:57.524Z,27.460648
2022-08-05T09:56:23.428Z,27.460648
2022-08-05T10:00:17.976Z,27.682870
2022-08-05T10:05:18.008Z,28.060185
2022-08-05T10:10:18.082Z,27.969907
2022-08-05T10:15:20.011Z,27.944444
2022-08-05T10:20:18.283Z,27.807870
2022-08-05T10:25:18.017Z,27.865741
2022-08-05T10:31:19.959Z,28.173611
2022-08-05T10:32:52.207Z,28.173611
2022-08-05T10:32:54.722Z,28.173611
2022-08-05T10:35:18.137Z,28.206019
2022-08-05T10:40:19.552Z,28.872685
2022-08-05T10:45:23.779Z,29.307870
2022-08-05T10:50:36.103Z,29.416667
2022-08-05T10:55:18.537Z,28.888889
2022-08-05T11:00:20.041Z,29.500000
2022-08-05T11:05:18.423Z,29.574074
2022-08-05T11:10:18.280Z,30.194444
2022-08-05T11:15:20.502Z,29.798611
2022-08-05T11:20:18.709Z,29.354167
2022-08-05T11:26:03.258Z,28.810185
2022-08-05T11:30:18.012Z,29.405093
2022-08-05T11:35:18.027Z,29.891204
2022-08-05T11:40:18.315Z,29.592593
2022-08-05T11:46:14.557Z,28.951389
2022-08-05T11:50:18.022Z,29.532407
2022-08-05T11:55:18.032Z,30.199074
2022-08-05T12:00:17.994Z,30.486111
2022-08-05T12:05:18.677Z,30.386667
2022-08-05T12:10:18.038Z,30.581019
2022-08-05T12:15:18.074Z,30.532407
2022-08-05T12:20:33.078Z,30.263889
2022-08-05T12:25:18.050Z,29.875000
2022-08-05T12:30:18.016Z,29.888889
2022-08-05T12:35:21.690Z,30.222222
2022-08-05T12:40:26.519Z,29.763889
2022-08-05T12:45:17.973Z,29.634259
2022-08-05T12:50:19.755Z,30.048611
2022-08-05T12:55:18.010Z,30.201389
2022-08-05T13:02:01.797Z,30.913333
2022-08-05T13:02:02.133Z,30.913333
2022-08-05T13:05:17.991Z,31.060185
2022-08-05T13:10:19.594Z,31.914352
2022-08-05T13:15:24.597Z,32.194444
2022-08-05T13:20:23.617Z,31.229167
2022-08-05T13:25:18.864Z,30.622685
2022-08-05T13:30:34.837Z,30.608796
2022-08-05T13:35:22.160Z,30.143519
2022-08-05T13:40:35.663Z,29.967593
2022-08-05T13:45:21.389Z,29.842593
2022-08-05T13:50:17.948Z,29.937500
2022-08-05T13:55:40.834Z,30.018519
2022-08-05T14:00:18.015Z,30.740741
2022-08-05T14:05:19.540Z,31.731481
2022-08-05T14:10:18.880Z,31.858796
2022-08-05T14:16:04.742Z,31.143519
2022-08-05T14:20:18.458Z,31.930556
2022-08-05T14:25:21.905Z,31.215278
2022-08-05T14:30:20.331Z,30.585648
2022-08-05T14:35:20.524Z,30.782407
2022-08-05T14:40:17.964Z,31.280093
2022-08-05T14:45:18.166Z,30.583333
2022-08-05T14:50:19.387Z,30.351852
2022-08-05T14:55:18.018Z,30.372685
2022-08-05T15:00:19.897Z,30.435185
2022-08-05T15:05:17.956Z,30.486111
2022-08-05T15:10:17.967Z,31.152778
2022-08-05T15:15:17.986Z,31.090278
2022-08-05T15:20:19.240Z,31.303241
2022-08-05T15:25:23.689Z,31.150463
2022-08-05T15:30:18.273Z,31.108796
2022-08-05T15:35:18.274Z,30.868056
2022-08-05T15:41:01.277Z,30.363426
2022-08-05T15:41:24.488Z,30.363426
2022-08-05T15:45:18.696Z,30.375000
2022-08-05T15:50:18.147Z,30.254630
2022-08-05T15:55:18.495Z,30.650463
2022-08-05T16:00:26.396Z,30.983796
2022-08-05T16:05:18.196Z,30.817130
2022-08-05T16:10:25.335Z,30.437500
2022-08-05T16:15:18.668Z,30.050926
2022-08-05T16:20:18.076Z,29.599537
2022-08-05T16:25:17.934Z,29.263889
2022-08-05T16:30:25.857Z,29.099537
2022-08-05T16:35:18.062Z,29.196759
2022-08-05T16:40:26.691Z,29.402778
2022-08-05T16:46:03.613Z,28.337963
2022-08-05T16:50:17.953Z,26.759259
2022-08-05T16:55:18.032Z,26.016204
2022-08-05T17:00:25.953Z,25.506944
2022-08-05T17:05:18.294Z,25.053241
2022-08-05T17:10:18.042Z,24.740741
2022-08-05T17:15:19.663Z,24.321759
2022-08-05T17:20:17.986Z,23.884259
2022-08-05T17:25:33.845Z,23.432870
2022-08-05T17:30:18.658Z,23.106481
2022-08-05T17:35:20.569Z,22.737778
2022-08-05T17:40:18.117Z,22.400463
2022-08-05T17:45:21.186Z,22.106481
2022-08-05T17:50:17.956Z,21.900000
2022-08-05T17:55:18.353Z,21.627315
2022-08-05T18:00:18.753Z,21.247685
2022-08-05T18:05:18.228Z,20.886574
2022-08-05T18:10:21.044Z,20.546296
2022-08-05T18:15:18.013Z,20.289352
2022-08-05T18:20:18.041Z,20.131944
2022-08-05T18:25:17.949Z,20.018519
2022-08-05T18:30:18.029Z,19.912037
2022-08-05T18:35:17.941Z,19.747685
2022-08-05T18:41:50.162Z,19.622222
2022-08-05T18:41:56.290Z,19.622222
2022-08-05T18:45:17.947Z,19.530093
2022-08-05T18:50:17.949Z,19.469907
2022-08-05T18:55:17.965Z,19.451389
2022-08-05T19:00:20.638Z,19.442130
2022-08-05T19:06:11.728Z,19.435185
2022-08-05T19:06:34.167Z,19.435185
2022-08-05T19:10:17.961Z,19.444444
2022-08-05T19:15:56.885Z,19.458333
2022-08-05T19:20:17.947Z,19.379630
2022-08-05T19:25:29.582Z,19.303241
2022-08-05T19:30:18.025Z,19.266204
2022-08-05T19:35:17.987Z,19.201389
2022-08-05T19:40:18.106Z,19.166667
2022-08-05T19:45:18.071Z,19.113426
2022-08-05T19:50:17.922Z,19.016204
2022-08-05T19:56:13.955Z,18.900463
2022-08-05T19:56:27.534Z,18.900463
2022-08-05T20:00:18.224Z,18.787037
2022-08-05T20:05:24.487Z,18.662037
2022-08-05T20:10:19.177Z,18.541667
2022-08-05T20:15:48.575Z,18.462963
2022-08-05T20:20:17.894Z,18.414352
2022-08-05T20:25:17.927Z,18.340278
2022-08-05T20:30:18.339Z,18.293981
2022-08-05T20:35:17.849Z,18.229167
2022-08-05T20:40:18.092Z,18.087963
2022-08-05T20:45:17.880Z,17.976852
2022-08-05T20:50:17.933Z,17.944444
2022-08-05T20:56:02.763Z,17.944444
2022-08-05T21:00:35.103Z,17.983796
2022-08-05T21:05:17.880Z,17.997685
2022-08-05T21:10:17.938Z,18.004630
2022-08-05T21:15:18.002Z,17.946759
2022-08-05T21:20:33.511Z,17.888889
2022-08-05T21:25:17.900Z,17.886574
2022-08-05T21:30:17.939Z,17.835648
2022-08-05T21:35:30.295Z,17.754630
2022-08-05T21:40:17.982Z,17.643519
2022-08-05T21:45:24.695Z,17.393519
2022-08-05T21:50:18.247Z,17.032407
2022-08-05T21:55:18.265Z,16.631944
2022-08-05T22:00:17.892Z,16.256944
2022-08-05T22:05:18.192Z,16.173611
2022-08-05T22:10:17.857Z,16.071759
2022-08-05T22:16:00.852Z,15.907407
2022-08-05T22:20:17.927Z,15.784722
2022-08-05T22:25:23.985Z,15.717593
2022-08-05T22:30:17.798Z,15.664352
2022-08-05T22:35:17.988Z,15.733796
2022-08-05T22:40:20.536Z,15.831019
2022-08-05T22:45:17.930Z,15.831019
2022-08-05T22:50:23.504Z,15.817130
2022-08-05T22:55:18.638Z,15.784722
2022-08-05T23:00:20.974Z,15.791667
2022-08-05T23:05:18.199Z,15.655093
2022-08-05T23:10:19.866Z,15.516204
2022-08-05T23:15:18.088Z,15.469907
2022-08-05T23:20:18.260Z,15.495370
2022-08-05T23:25:50.962Z,15.590278
2022-08-05T23:30:18.182Z,15.618056
2022-08-05T23:35:18.005Z,15.541667
2022-08-05T23:40:17.949Z,15.483796
2022-08-05T23:45:18.254Z,15.460648
2022-08-05T23:50:20.237Z,15.449074
2022-08-05T23:55:18.114Z,15.391204
